sensor_id;sensor_type;location;lat;lon;timestamp;P1;durP1;ratioP1;P2;durP2;ratioP2
50126;SDS011;36024;47.974;16.398;2022-11-15T06:54:02;45.40;;;25.77;;
50126;SDS011;36024;47.974;16.398;2022-11-15T06:56:47;40.47;;;22.90;;
50126;SDS011;36024;47.974;16.398;2022-11-15T06:59:33;39.87;;;22.77;;
50126;SDS011;36024;47.974;16.398;2022-11-15T07:02:24;42.27;;;23.57;;
50126;SDS011;36024;47.974;16.398;2022-11-15T07:05:10;43.13;;;23.53;;
50126;SDS011;36024;47.974;16.398;2022-11-15T07:07:56;44.03;;;22.77;;
50126;SDS011;36024;47.974;16.398;2022-11-15T07:10:42;38.73;;;22.73;;
50126;SDS011;36024;47.974;16.398;2022-11-15T07:13:28;40.30;;;22.20;;
50126;SDS011;36024;47.974;16.398;2022-11-15T07:16:15;40.60;;;22.77;;
50126;SDS011;36024;47.974;16.398;2022-11-15T07:19:00;44.60;;;21.63;;
50126;SDS011;36024;47.974;16.398;2022-11-15T07:21:45;44.23;;;23.47;;
50126;SDS011;36024;47.974;16.398;2022-11-15T07:24:31;42.47;;;23.13;;
50126;SDS011;36024;47.974;16.398;2022-11-15T07:27:16;44.43;;;22.53;;
50126;SDS011;36024;47.974;16.398;2022-11-15T07:30:02;47.20;;;23.53;;
50126;SDS011;36024;47.974;16.398;2022-11-15T07:32:51;44.90;;;23.50;;
50126;SDS011;36024;47.974;16.398;2022-11-15T07:35:45;39.87;;;23.23;;
50126;SDS011;36024;47.974;16.398;2022-11-15T07:38:34;49.30;;;24.57;;
50126;SDS011;36024;47.974;16.398;2022-11-15T07:41:27;42.40;;;22.77;;
50126;SDS011;36024;47.974;16.398;2022-11-15T07:44:16;47.27;;;24.00;;
50126;SDS011;36024;47.974;16.398;2022-11-15T07:47:01;41.90;;;23.17;;
50126;SDS011;36024;47.974;16.398;2022-11-15T07:49:46;50.80;;;24.83;;
50126;SDS011;36024;47.974;16.398;2022-11-15T07:52:32;55.83;;;26.07;;
50126;SDS011;36024;47.974;16.398;2022-11-15T07:55:17;45.90;;;25.07;;
50126;SDS011;36024;47.974;16.398;2022-11-15T07:58:06;46.07;;;24.30;;
50126;SDS011;36024;47.974;16.398;2022-11-15T08:00:53;46.73;;;25.07;;
50126;SDS011;36024;47.974;16.398;2022-11-15T08:03:38;44.77;;;25.47;;
50126;SDS011;36024;47.974;16.398;2022-11-15T08:06:23;43.37;;;24.10;;
50126;SDS011;36024;47.974;16.398;2022-11-15T08:09:09;43.33;;;25.20;;
50126;SDS011;36024;47.974;16.398;2022-11-15T08:11:54;46.57;;;26.37;;
50126;SDS011;36024;47.974;16.398;2022-11-15T08:14:39;49.33;;;27.90;;
50126;SDS011;36024;47.974;16.398;2022-11-15T08:17:24;48.47;;;28.00;;
50126;SDS011;36024;47.974;16.398;2022-11-15T08:20:10;42.90;;;25.50;;
50126;SDS011;36024;47.974;16.398;2022-11-15T08:22:56;44.53;;;24.97;;
50126;SDS011;36024;47.974;16.398;2022-11-15T08:25:41;41.30;;;24.67;;
50126;SDS011;36024;47.974;16.398;2022-11-15T08:28:27;43.10;;;24.43;;
50126;SDS011;36024;47.974;16.398;2022-11-15T08:31:14;39.07;;;23.83;;
50126;SDS011;36024;47.974;16.398;2022-11-15T08:34:00;39.27;;;23.93;;
50126;SDS011;36024;47.974;16.398;2022-11-15T08:36:46;39.10;;;23.80;;
50126;SDS011;36024;47.974;16.398;2022-11-15T08:39:31;39.87;;;24.47;;
50126;SDS011;36024;47.974;16.398;2022-11-15T08:42:16;46.07;;;24.27;;
50126;SDS011;36024;47.974;16.398;2022-11-15T08:45:04;38.27;;;24.33;;
50126;SDS011;36024;47.974;16.398;2022-11-15T08:47:49;41.00;;;25.50;;
50126;SDS011;36024;47.974;16.398;2022-11-15T08:50:38;36.57;;;23.27;;
50126;SDS011;36024;47.974;16.398;2022-11-15T08:53:23;41.87;;;23.93;;
50126;SDS011;36024;47.974;16.398;2022-11-15T08:56:09;37.13;;;23.10;;
50126;SDS011;36024;47.974;16.398;2022-11-15T08:58:55;38.43;;;22.43;;
50126;SDS011;36024;47.974;16.398;2022-11-15T09:01:40;34.80;;;22.03;;
50126;SDS011;36024;47.974;16.398;2022-11-15T09:04:26;39.30;;;22.80;;
50126;SDS011;36024;47.974;16.398;2022-11-15T09:07:12;37.37;;;22.50;;
50126;SDS011;36024;47.974;16.398;2022-11-15T09:09:58;35.67;;;21.60;;
50126;SDS011;36024;47.974;16.398;2022-11-15T09:12:44;34.97;;;21.90;;
50126;SDS011;36024;47.974;16.398;2022-11-15T09:15:30;33.77;;;21.30;;
50126;SDS011;36024;47.974;16.398;2022-11-15T09:18:18;34.20;;;21.87;;
50126;SDS011;36024;47.974;16.398;2022-11-15T09:21:06;31.43;;;20.27;;
50126;SDS011;36024;47.974;16.398;2022-11-15T09:23:52;32.70;;;20.37;;
50126;SDS011;36024;47.974;16.398;2022-11-15T09:26:37;33.57;;;20.83;;
50126;SDS011;36024;47.974;16.398;2022-11-15T09:29:23;32.47;;;20.33;;
50126;SDS011;36024;47.974;16.398;2022-11-15T09:32:09;34.03;;;21.50;;
50126;SDS011;36024;47.974;16.398;2022-11-15T09:34:57;31.87;;;20.50;;
50126;SDS011;36024;47.974;16.398;2022-11-15T19:51:24;25.87;;;19.70;;
50126;SDS011;36024;47.974;16.398;2022-11-15T19:53:53;26.50;;;19.83;;
50126;SDS011;36024;47.974;16.398;2022-11-15T19:56:21;28.67;;;19.67;;
50126;SDS011;36024;47.974;16.398;2022-11-15T19:58:49;27.57;;;19.30;;
50126;SDS011;36024;47.974;16.398;2022-11-15T20:01:19;28.60;;;20.03;;
50126;SDS011;36024;47.974;16.398;2022-11-15T20:03:48;31.47;;;21.30;;
50126;SDS011;36024;47.974;16.398;2022-11-15T20:06:16;73.07;;;39.83;;
50126;SDS011;36024;47.974;16.398;2022-11-15T20:08:45;56.37;;;35.83;;
50126;SDS011;36024;47.974;16.398;2022-11-15T20:11:15;32.40;;;25.27;;
50126;SDS011;36024;47.974;16.398;2022-11-15T20:13:42;32.17;;;22.67;;
50126;SDS011;36024;47.974;16.398;2022-11-15T20:16:13;32.23;;;22.30;;
50126;SDS011;36024;47.974;16.398;2022-11-15T20:18:44;29.17;;;21.10;;
50126;SDS011;36024;47.974;16.398;2022-11-15T20:21:11;29.30;;;20.70;;
50126;SDS011;36024;47.974;16.398;2022-11-15T20:23:40;28.57;;;20.73;;
50126;SDS011;36024;47.974;16.398;2022-11-15T20:26:07;28.83;;;21.53;;
50126;SDS011;36024;47.974;16.398;2022-11-15T20:28:35;31.87;;;22.60;;
50126;SDS011;36024;47.974;16.398;2022-11-15T20:31:03;33.37;;;22.43;;
50126;SDS011;36024;47.974;16.398;2022-11-15T20:33:30;30.73;;;20.90;;
50126;SDS011;36024;47.974;16.398;2022-11-15T20:36:01;29.03;;;20.47;;
